createdAt,value
2019-04-10T00:01:12.061Z,33.98
2019-04-10T00:03:44.013Z,41.42
2019-04-10T00:06:18.568Z,39.25
2019-04-10T00:08:50.692Z,45.10
2019-04-10T00:11:22.849Z,46.53
2019-04-10T00:13:55.347Z,44.80
2019-04-10T00:16:27.788Z,37.08
2019-04-10T00:18:59.394Z,48.75
2019-04-10T00:21:31.447Z,36.37
2019-04-10T00:24:03.882Z,35.08
2019-04-10T00:26:35.662Z,34.73
2019-04-10T00:29:07.772Z,45.75
2019-04-10T00:31:40.230Z,28.52
2019-04-10T00:34:13.527Z,39.33
2019-04-10T00:36:45.623Z,28.42
2019-04-10T00:39:18.069Z,40.60
2019-04-10T00:41:49.635Z,32.55
2019-04-10T00:44:21.680Z,42.58
2019-04-10T00:46:53.433Z,39.42
2019-04-10T00:49:26.014Z,33.13
2019-04-10T00:54:29.726Z,35.03
2019-04-10T00:57:01.176Z,30.72
2019-04-10T00:59:34.465Z,40.92
2019-04-10T01:04:38.193Z,33.63
2019-04-10T01:07:10.686Z,42.78
2019-04-10T01:09:42.539Z,39.48
2019-04-10T01:12:14.233Z,37.63
2019-04-10T01:14:46.284Z,38.33
2019-04-10T01:17:17.878Z,50.40
2019-04-10T01:19:50.263Z,37.33
2019-04-10T01:24:54.342Z,35.35
2019-04-10T01:27:26.236Z,46.80
2019-04-10T01:29:58.642Z,46.50
2019-04-10T01:32:30.445Z,44.38
2019-04-10T01:35:02.511Z,31.77
2019-04-10T01:37:46.897Z,34.10
2019-04-10T01:40:09.012Z,41.50
2019-04-10T01:42:40.837Z,42.53
2019-04-10T01:45:13.301Z,39.33
2019-04-10T01:50:16.023Z,46.55
2019-04-10T01:52:47.800Z,43.78
2019-04-10T01:55:26.595Z,36.38
2019-04-10T01:57:54.692Z,38.80
2019-04-10T02:00:28.093Z,46.90
2019-04-10T02:02:59.757Z,29.40
2019-04-10T02:05:32.567Z,52.67
2019-04-10T02:08:10.023Z,37.20
2019-04-10T02:10:38.407Z,42.33
2019-04-10T02:13:09.973Z,40.52
2019-04-10T02:15:41.945Z,53.02
2019-04-10T02:18:13.549Z,41.68
2019-04-10T02:20:45.637Z,45.88
2019-04-10T02:23:19.129Z,40.80
2019-04-10T02:25:50.623Z,42.38
2019-04-10T02:28:22.773Z,52.55
2019-04-10T02:30:56.520Z,42.90
2019-04-10T02:33:29.354Z,48.85
2019-04-10T02:36:01.588Z,43.00
2019-04-10T02:41:08.168Z,44.20
2019-04-10T02:43:39.918Z,49.45
2019-04-10T02:46:13.220Z,43.05
2019-04-10T02:48:45.344Z,48.63
2019-04-10T02:51:17.641Z,51.77
2019-04-10T02:53:50.178Z,54.80
2019-04-10T02:56:23.844Z,39.83
2019-04-10T02:58:56.708Z,48.73
2019-04-10T03:01:29.624Z,53.08
2019-04-10T03:04:01.521Z,40.98
2019-04-10T03:06:33.643Z,41.28
2019-04-10T03:09:24.154Z,50.17
2019-04-10T03:11:41.991Z,52.23
2019-04-10T03:14:14.784Z,45.35
2019-04-10T03:19:19.121Z,42.93
2019-04-10T03:21:51.374Z,44.88
2019-04-10T03:24:23.325Z,41.45
2019-04-10T03:26:54.939Z,44.33
2019-04-10T03:29:27.427Z,49.00
2019-04-10T03:32:02.070Z,37.95
2019-04-10T03:34:38.857Z,41.10
2019-04-10T03:37:08.259Z,41.85
2019-04-10T03:39:40.571Z,50.48
2019-04-10T03:42:12.696Z,51.40
2019-04-10T03:44:45.206Z,43.40
2019-04-10T03:47:17.497Z,49.33
2019-04-10T03:52:21.501Z,35.50
2019-04-10T03:54:54.512Z,38.48
2019-04-10T03:57:26.802Z,40.55
2019-04-10T03:59:58.659Z,41.00
2019-04-10T04:02:31.578Z,44.93
2019-04-10T04:05:04.390Z,49.03
2019-04-10T04:07:36.795Z,42.33
2019-04-10T04:12:41.060Z,42.00
2019-04-10T04:15:13.596Z,54.65
2019-04-10T04:20:16.937Z,43.85
2019-04-10T04:22:49.490Z,39.35
2019-04-10T04:25:21.892Z,44.18
2019-04-10T04:27:53.922Z,39.65
2019-04-10T04:30:25.820Z,41.75
2019-04-10T04:32:58.040Z,31.73
2019-04-10T04:38:02.582Z,41.30
2019-04-10T04:40:35.672Z,37.05
2019-04-10T04:43:07.892Z,37.85
2019-04-10T04:45:40.093Z,43.65
2019-04-10T04:48:11.835Z,46.70
2019-04-10T04:50:43.975Z,45.48
2019-04-10T04:55:47.838Z,39.45
2019-04-10T04:58:20.286Z,42.58
2019-04-10T05:00:52.400Z,44.75
2019-04-10T05:03:25.576Z,48.02
2019-04-10T05:05:58.221Z,38.10
2019-04-10T05:08:30.280Z,53.65
2019-04-10T05:13:34.787Z,44.03
2019-04-10T05:16:07.949Z,37.50
2019-04-10T05:18:39.868Z,33.20
2019-04-10T05:21:12.719Z,33.42
2019-04-10T05:23:44.598Z,38.58
2019-04-10T05:26:16.612Z,41.02
2019-04-10T05:28:48.634Z,39.18
2019-04-10T05:31:21.474Z,36.50
2019-04-10T05:33:53.347Z,39.25
2019-04-10T05:36:25.665Z,36.03
2019-04-10T05:41:29.372Z,48.83
2019-04-10T05:44:01.202Z,32.38
2019-04-10T05:46:32.988Z,30.60
2019-04-10T05:49:04.553Z,39.40
2019-04-10T05:51:37.471Z,43.55
2019-04-10T05:54:08.947Z,43.90
2019-04-10T05:56:41.149Z,32.55
2019-04-10T05:59:13.594Z,33.83
2019-04-10T06:01:46.272Z,36.98
2019-04-10T06:04:18.969Z,34.65
2019-04-10T06:06:50.711Z,42.25
2019-04-10T06:11:55.296Z,38.00
2019-04-10T06:14:28.185Z,43.95
2019-04-10T06:17:03.659Z,42.88
2019-04-10T06:19:34.291Z,28.12
2019-04-10T06:22:06.207Z,43.65
2019-04-10T06:24:38.468Z,39.58
2019-04-10T06:27:10.396Z,35.83
2019-04-10T06:29:44.566Z,35.33
2019-04-10T06:32:15.615Z,38.85
2019-04-10T06:34:48.215Z,39.98
2019-04-10T06:37:19.878Z,34.30
2019-04-10T06:40:03.668Z,46.15
2019-04-10T06:42:26.575Z,47.90
2019-04-10T06:44:59.032Z,45.80
2019-04-10T06:50:02.633Z,48.30
2019-04-10T06:52:34.583Z,42.90
2019-04-10T06:55:07.288Z,42.80
2019-04-10T06:57:46.808Z,38.63
2019-04-10T07:00:16.612Z,39.05
2019-04-10T07:02:48.438Z,48.92
2019-04-10T07:07:56.658Z,38.42
2019-04-10T07:10:30.763Z,38.00
2019-04-10T07:12:59.568Z,33.73
2019-04-10T07:15:31.554Z,34.67
2019-04-10T07:18:03.104Z,29.87
2019-04-10T07:20:35.917Z,35.88
2019-04-10T07:23:08.073Z,34.15
2019-04-10T07:25:42.461Z,31.07
2019-04-10T07:28:13.730Z,31.17
2019-04-10T07:30:45.661Z,32.30
2019-04-10T07:33:19.430Z,29.95
2019-04-10T07:35:54.599Z,31.97
2019-04-10T07:38:24.762Z,21.35
2019-04-10T07:40:56.892Z,35.48
2019-04-10T07:43:29.497Z,34.83
2019-04-10T07:46:02.381Z,27.30
2019-04-10T07:48:34.033Z,40.55
2019-04-10T07:51:06.998Z,34.65
2019-04-10T07:53:39.582Z,31.68
2019-04-10T07:56:17.346Z,27.75
2019-04-10T07:58:46.005Z,31.07
2019-04-10T08:01:18.261Z,41.50
2019-04-10T08:03:52.214Z,28.38
2019-04-10T08:06:23.498Z,24.65
2019-04-10T08:08:56.286Z,16.52
2019-04-10T08:11:29.530Z,23.25
2019-04-10T08:14:01.803Z,21.55
2019-04-10T08:16:33.348Z,24.63
2019-04-10T08:19:06.278Z,21.97
2019-04-10T08:21:38.101Z,23.15
2019-04-10T08:24:09.897Z,25.00
2019-04-10T08:26:42.977Z,19.67
2019-04-10T08:29:14.650Z,24.47
2019-04-10T08:31:46.295Z,17.90
2019-04-10T08:34:19.401Z,36.00
2019-04-10T08:36:53.847Z,24.72
2019-04-10T08:39:33.983Z,25.48
2019-04-10T08:42:00.010Z,21.25
2019-04-10T08:44:32.260Z,24.30
2019-04-10T08:47:03.702Z,20.68
2019-04-10T08:49:35.482Z,26.68
2019-04-10T08:52:08.236Z,19.07
2019-04-10T08:54:40.502Z,20.95
2019-04-10T08:57:12.208Z,22.87
2019-04-10T08:59:45.320Z,19.30
2019-04-10T09:02:18.016Z,18.35
2019-04-10T09:04:49.959Z,20.32
2019-04-10T09:07:22.218Z,20.95
2019-04-10T09:09:54.256Z,20.37
2019-04-10T09:12:26.126Z,15.55
2019-04-10T09:14:59.239Z,25.12
2019-04-10T09:17:33.341Z,26.97
2019-04-10T09:20:08.809Z,22.90
2019-04-10T09:22:57.934Z,18.37
2019-04-10T09:25:13.839Z,16.73
2019-04-10T09:27:46.314Z,14.47
2019-04-10T09:30:18.445Z,22.62
2019-04-10T09:35:22.537Z,23.97
2019-04-10T09:37:54.597Z,12.03
2019-04-10T09:40:27.966Z,13.00
2019-04-10T09:45:31.452Z,16.37
2019-04-10T09:48:04.274Z,16.40
2019-04-10T09:50:36.816Z,20.68
2019-04-10T09:53:08.791Z,18.40
2019-04-10T09:58:13.301Z,19.02
2019-04-10T10:00:45.848Z,14.50
2019-04-10T10:03:17.955Z,16.57
2019-04-10T10:05:51.306Z,19.07
2019-04-10T10:08:22.931Z,18.45
2019-04-10T10:10:55.566Z,20.65
2019-04-10T10:13:27.748Z,18.12
2019-04-10T10:16:00.751Z,15.93
2019-04-10T10:18:33.167Z,19.55
2019-04-10T10:23:36.120Z,19.17
2019-04-10T10:26:07.991Z,16.45
2019-04-10T10:28:39.714Z,14.38
2019-04-10T10:31:11.649Z,20.57
2019-04-10T10:33:43.312Z,11.05
2019-04-10T10:36:15.856Z,11.55
2019-04-10T10:38:47.542Z,20.25
2019-04-10T10:41:20.227Z,18.73
2019-04-10T10:43:52.975Z,12.80
2019-04-10T10:46:25.173Z,10.50
2019-04-10T10:48:57.971Z,13.22
2019-04-10T10:51:30.830Z,9.75
2019-04-10T10:54:03.103Z,9.20
2019-04-10T10:56:36.329Z,7.75
2019-04-10T10:59:07.889Z,12.07
2019-04-10T11:01:40.021Z,14.68
2019-04-10T11:04:11.507Z,19.75
2019-04-10T11:06:55.337Z,13.93
2019-04-10T11:09:18.191Z,15.50
2019-04-10T11:11:49.816Z,17.35
2019-04-10T11:14:21.619Z,15.40
2019-04-10T11:16:56.119Z,16.77
2019-04-10T11:19:29.117Z,20.90
2019-04-10T11:22:01.016Z,14.60
2019-04-10T11:24:33.248Z,11.40
2019-04-10T11:27:06.617Z,14.33
2019-04-10T11:29:39.017Z,12.50
2019-04-10T11:34:43.252Z,16.62
2019-04-10T11:37:24.151Z,15.78
2019-04-10T11:39:50.922Z,17.20
2019-04-10T11:42:23.527Z,16.67
2019-04-10T11:44:55.520Z,19.80
2019-04-10T11:50:00.906Z,17.42
2019-04-10T11:52:39.653Z,14.98
2019-04-10T11:55:13.703Z,15.03
2019-04-10T11:57:41.978Z,14.10
2019-04-10T12:00:19.616Z,19.42
2019-04-10T12:02:52.760Z,21.10
2019-04-10T12:05:26.859Z,16.15
2019-04-10T12:08:22.093Z,9.40
2019-04-10T12:13:05.980Z,13.83
2019-04-10T12:15:39.212Z,15.72
2019-04-10T12:18:11.447Z,22.82
2019-04-10T12:20:43.160Z,12.90
2019-04-10T12:23:16.762Z,18.27
2019-04-10T12:25:49.387Z,16.32
2019-04-10T12:28:22.087Z,17.45
2019-04-10T12:30:53.663Z,12.33
2019-04-10T12:33:25.526Z,11.05
2019-04-10T12:35:58.191Z,9.00
2019-04-10T12:38:29.992Z,10.75
2019-04-10T12:41:01.502Z,13.13
2019-04-10T12:43:33.466Z,8.88
2019-04-10T12:46:05.544Z,8.98
2019-04-10T12:48:38.801Z,12.13
2019-04-10T12:51:11.864Z,13.72
2019-04-10T12:53:43.635Z,13.55
2019-04-10T12:56:15.773Z,11.95
2019-04-10T12:58:47.410Z,12.43
2019-04-10T13:01:19.060Z,15.95
2019-04-10T13:03:51.526Z,10.48
2019-04-10T13:06:24.177Z,12.65
2019-04-10T13:09:05.652Z,11.93
2019-04-10T13:11:30.169Z,14.70
2019-04-10T13:14:02.216Z,14.20
2019-04-10T13:16:34.258Z,10.65
2019-04-10T13:19:06.964Z,12.07
2019-04-10T13:21:38.955Z,15.40
2019-04-10T13:24:11.112Z,11.25
2019-04-10T13:26:42.888Z,7.62
2019-04-10T13:29:14.762Z,11.40
2019-04-10T13:31:46.745Z,12.18
2019-04-10T13:34:19.655Z,12.18
2019-04-10T13:36:51.651Z,12.85
2019-04-10T13:39:24.446Z,9.08
2019-04-10T13:41:56.731Z,15.63
2019-04-10T13:44:30.722Z,11.68
2019-04-10T13:47:02.691Z,12.55
2019-04-10T13:49:34.531Z,16.48
2019-04-10T13:54:37.353Z,12.78
2019-04-10T13:57:09.824Z,14.58
2019-04-10T13:59:41.774Z,11.18
2019-04-10T14:02:17.321Z,12.40
2019-04-10T14:04:49.436Z,11.78
2019-04-10T14:07:22.119Z,23.20
2019-04-10T14:09:54.480Z,12.78
2019-04-10T14:12:27.082Z,8.33
2019-04-10T14:15:01.544Z,15.35
2019-04-10T14:17:33.719Z,10.18
2019-04-10T14:20:07.583Z,12.55
2019-04-10T14:22:41.964Z,15.83
2019-04-10T14:25:15.631Z,31.70
2019-04-10T14:27:47.362Z,10.38
2019-04-10T14:30:29.726Z,5.92
2019-04-10T14:33:01.422Z,5.28
2019-04-10T14:35:33.620Z,8.05
2019-04-10T14:38:06.557Z,9.48
2019-04-10T14:40:39.897Z,11.55
2019-04-10T14:43:12.441Z,15.10
2019-04-10T14:48:16.107Z,9.08
2019-04-10T14:50:47.904Z,12.68
2019-04-10T14:53:20.149Z,13.13
2019-04-10T14:55:51.717Z,15.78
2019-04-10T14:58:28.181Z,8.20
2019-04-10T15:00:57.936Z,8.78
2019-04-10T15:03:30.678Z,7.87
2019-04-10T15:06:02.628Z,7.33
2019-04-10T15:08:35.603Z,11.63
2019-04-10T15:11:08.683Z,10.40
2019-04-10T15:13:40.898Z,15.72
2019-04-10T15:16:12.886Z,8.90
2019-04-10T15:18:45.836Z,10.85
2019-04-10T15:21:18.594Z,12.68
2019-04-10T15:23:51.071Z,10.08
2019-04-10T15:26:23.928Z,11.43
2019-04-10T15:28:56.317Z,7.97
2019-04-10T15:31:29.075Z,15.40
2019-04-10T15:34:01.602Z,9.48
2019-04-10T15:36:33.944Z,15.75
2019-04-10T15:39:08.695Z,21.90
2019-04-10T15:41:41.308Z,16.50
2019-04-10T15:44:14.084Z,13.60
2019-04-10T15:46:46.470Z,33.58
2019-04-10T15:49:19.406Z,27.60
2019-04-10T15:51:51.052Z,36.73
2019-04-10T15:54:23.652Z,23.70
2019-04-10T15:59:26.792Z,26.95
2019-04-10T16:01:59.370Z,31.02
2019-04-10T16:04:31.668Z,41.88
2019-04-10T16:07:04.143Z,39.67
2019-04-10T16:09:46.409Z,36.05
2019-04-10T16:12:16.912Z,32.20
2019-04-10T16:14:50.669Z,28.95
2019-04-10T16:17:44.382Z,30.80
2019-04-10T16:20:21.744Z,32.67
2019-04-10T16:22:55.001Z,20.15
2019-04-10T16:25:30.156Z,23.57
2019-04-10T16:28:02.575Z,27.10
2019-04-10T16:30:34.924Z,24.55
2019-04-10T16:33:07.148Z,25.75
2019-04-10T16:35:40.091Z,16.90
2019-04-10T16:38:12.129Z,18.92
2019-04-10T16:40:44.027Z,16.85
2019-04-10T16:43:16.046Z,12.65
2019-04-10T16:45:48.986Z,15.08
2019-04-10T16:48:21.005Z,16.17
2019-04-10T16:50:53.970Z,22.90
2019-04-10T16:53:25.782Z,14.10
2019-04-10T16:55:59.042Z,11.05
2019-04-10T16:58:32.020Z,10.85
2019-04-10T17:01:04.414Z,15.78
2019-04-10T17:06:08.245Z,16.67
2019-04-10T17:08:40.465Z,10.63
2019-04-10T17:13:44.156Z,8.85
2019-04-10T17:16:17.647Z,10.90
2019-04-10T17:18:49.626Z,10.18
2019-04-10T17:21:21.519Z,10.93
2019-04-10T17:23:53.276Z,11.20
2019-04-10T17:26:26.599Z,16.80
2019-04-10T17:28:58.847Z,11.70
2019-04-10T17:31:30.858Z,12.35
2019-04-10T17:34:02.973Z,21.65
2019-04-10T17:36:34.855Z,21.70
2019-04-10T17:39:11.234Z,14.93
2019-04-10T17:41:43.890Z,13.98
2019-04-10T17:44:17.977Z,9.53
2019-04-10T17:46:51.265Z,9.15
2019-04-10T17:49:23.483Z,14.90
2019-04-10T17:51:54.958Z,14.35
2019-04-10T17:54:28.527Z,12.50
2019-04-10T17:57:00.985Z,9.43
2019-04-10T17:59:32.667Z,12.87
2019-04-10T18:02:07.401Z,19.27
2019-04-10T18:04:40.081Z,17.55
2019-04-10T18:07:12.157Z,13.32
2019-04-10T18:09:43.814Z,12.18
2019-04-10T18:12:16.292Z,15.18
2019-04-10T18:14:49.210Z,13.75
2019-04-10T18:17:21.221Z,16.05
2019-04-10T18:19:52.725Z,15.43
2019-04-10T18:22:24.826Z,18.57
2019-04-10T18:24:56.507Z,13.45
2019-04-10T18:27:28.276Z,21.37
2019-04-10T18:29:59.922Z,20.85
2019-04-10T18:32:31.884Z,18.30
2019-04-10T18:35:04.618Z,16.87
2019-04-10T18:37:37.066Z,22.15
2019-04-10T18:42:40.145Z,16.42
2019-04-10T18:45:13.327Z,16.23
2019-04-10T18:47:46.097Z,12.43
2019-04-10T18:50:18.315Z,19.07
2019-04-10T18:52:49.976Z,19.30
2019-04-10T18:55:22.582Z,18.70
2019-04-10T18:57:54.919Z,17.87
2019-04-10T19:00:43.759Z,16.37
2019-04-10T19:03:17.849Z,16.62
2019-04-10T19:06:08.304Z,18.02
2019-04-10T19:08:39.852Z,21.73
2019-04-10T19:11:21.117Z,17.55
2019-04-10T19:13:47.248Z,18.42
2019-04-10T19:16:21.416Z,21.87
2019-04-10T19:18:53.778Z,20.85
2019-04-10T19:21:27.245Z,17.05
2019-04-10T19:23:59.159Z,18.80
2019-04-10T19:26:31.495Z,17.50
2019-04-10T19:29:03.392Z,17.02
2019-04-10T19:31:38.533Z,15.58
2019-04-10T19:34:10.225Z,20.00
2019-04-10T19:36:43.883Z,17.12
2019-04-10T19:39:16.091Z,23.05
2019-04-10T19:41:49.107Z,23.73
2019-04-10T19:44:21.199Z,24.65
2019-04-10T19:46:53.659Z,20.95
2019-04-10T19:49:25.260Z,18.15
2019-04-10T19:51:58.126Z,16.80
2019-04-10T19:54:30.221Z,22.40
2019-04-10T19:57:04.539Z,23.73
2019-04-10T19:59:36.327Z,15.70
2019-04-10T20:02:08.844Z,18.17
2019-04-10T20:07:13.176Z,23.53
2019-04-10T20:09:46.241Z,17.02
2019-04-10T20:12:18.202Z,23.38
2019-04-10T20:14:50.642Z,17.62
2019-04-10T20:17:22.529Z,18.35
2019-04-10T20:19:56.718Z,20.65
2019-04-10T20:22:29.315Z,19.60
2019-04-10T20:25:02.154Z,17.17
2019-04-10T20:27:34.167Z,19.48
2019-04-10T20:30:09.907Z,20.20
2019-04-10T20:32:42.020Z,22.50
2019-04-10T20:35:14.058Z,22.37
2019-04-10T20:37:47.330Z,28.30
2019-04-10T20:40:20.758Z,21.15
2019-04-10T20:42:52.609Z,50.43
2019-04-10T20:45:25.313Z,70.75
2019-04-10T20:47:58.197Z,66.28
2019-04-10T20:50:30.113Z,65.85
2019-04-10T20:53:01.988Z,88.27
2019-04-10T20:55:35.558Z,58.92
2019-04-10T20:58:07.415Z,50.40
2019-04-10T21:00:41.248Z,44.88
2019-04-10T21:03:13.814Z,46.02
2019-04-10T21:05:46.690Z,44.15
2019-04-10T21:08:18.547Z,35.83
2019-04-10T21:10:51.370Z,34.38
2019-04-10T21:13:23.534Z,30.62
2019-04-10T21:15:55.634Z,27.22
2019-04-10T21:29:00.884Z,20.97
2019-04-10T21:31:50.677Z,20.30
2019-04-10T21:34:37.012Z,21.40
2019-04-10T21:37:09.959Z,19.98
2019-04-10T21:39:42.235Z,20.37
2019-04-10T21:42:21.210Z,21.77
2019-04-10T21:44:49.147Z,25.75
2019-04-10T21:47:21.788Z,17.90
2019-04-10T21:52:25.603Z,18.65
2019-04-10T21:55:00.493Z,22.13
2019-04-10T21:57:32.761Z,20.27
2019-04-10T22:00:10.069Z,19.48
2019-04-10T22:02:45.017Z,24.57
2019-04-10T22:05:17.111Z,24.98
2019-04-10T22:08:09.460Z,26.45
2019-04-10T22:10:46.145Z,24.60
2019-04-10T22:13:19.713Z,21.25
2019-04-10T22:15:51.986Z,22.87
2019-04-10T22:18:25.232Z,22.05
2019-04-10T22:20:58.567Z,20.25
2019-04-10T22:23:30.472Z,21.80
2019-04-10T22:26:02.286Z,26.07
2019-04-10T22:28:34.124Z,20.20
2019-04-10T22:31:06.105Z,20.25
2019-04-10T22:33:38.515Z,21.27
2019-04-10T22:36:10.798Z,25.75
2019-04-10T22:38:43.803Z,19.37
2019-04-10T22:41:23.613Z,24.35
2019-04-10T22:43:49.636Z,20.30
2019-04-10T22:46:21.561Z,21.50
2019-04-10T22:48:53.949Z,19.52
2019-04-10T22:51:26.917Z,19.48
2019-04-10T22:53:58.831Z,23.75
2019-04-10T22:56:31.558Z,21.62
2019-04-10T22:59:03.961Z,26.10
2019-04-10T23:01:35.819Z,27.77
2019-04-10T23:04:08.210Z,20.75
2019-04-10T23:09:12.343Z,25.08
2019-04-10T23:11:46.463Z,24.35
2019-04-10T23:14:18.524Z,23.62
2019-04-10T23:16:50.512Z,28.77
2019-04-10T23:19:22.676Z,23.95
2019-04-10T23:21:54.620Z,30.30
2019-04-10T23:24:27.741Z,28.38
2019-04-10T23:27:01.720Z,24.70
2019-04-10T23:29:33.839Z,24.57
2019-04-10T23:32:05.954Z,26.82
2019-04-10T23:34:38.918Z,24.90
2019-04-10T23:37:10.921Z,22.87
2019-04-10T23:39:43.836Z,26.73
2019-04-10T23:42:15.930Z,27.75
2019-04-10T23:44:47.781Z,25.00
2019-04-10T23:47:20.095Z,33.83
2019-04-10T23:49:52.066Z,26.48
2019-04-10T23:52:23.787Z,32.60
2019-04-10T23:54:55.855Z,28.80
2019-04-10T23:57:27.785Z,32.50
